createdAt,value
2023-07-10T00:00:01.814Z,6.54
2023-07-10T00:02:28.406Z,6.52
2023-07-10T00:04:55.008Z,6.47
2023-07-10T00:07:21.565Z,6.54
2023-07-10T00:09:48.084Z,6.81
2023-07-10T00:12:14.653Z,6.68
2023-07-10T00:14:41.117Z,6.65
2023-07-10T00:17:07.646Z,6.23
2023-07-10T00:22:17.947Z,6.35
2023-07-10T00:24:44.469Z,6.13
2023-07-10T00:27:11.028Z,6.83
2023-07-10T00:29:37.508Z,6.78
2023-07-10T00:32:04.009Z,6.64
2023-07-10T00:34:30.596Z,6.65
2023-07-10T00:36:57.178Z,6.34
2023-07-10T00:39:23.757Z,6.31
2023-07-10T00:41:50.338Z,6.55
2023-07-10T00:44:16.892Z,6.68
2023-07-10T00:46:43.440Z,6.45
2023-07-10T00:49:10.007Z,6.38
2023-07-10T00:51:36.611Z,6.52
2023-07-10T00:54:03.183Z,6.50
2023-07-10T00:56:29.778Z,6.39
2023-07-10T00:58:56.314Z,6.50
2023-07-10T01:01:22.891Z,6.35
2023-07-10T01:03:49.440Z,6.61
2023-07-10T01:06:15.962Z,6.60
2023-07-10T01:08:42.447Z,6.76
2023-07-10T01:11:08.987Z,6.94
2023-07-10T01:13:35.472Z,6.38
2023-07-10T01:16:02.420Z,6.53
2023-07-10T01:18:29.298Z,6.54
2023-07-10T01:20:56.069Z,6.85
2023-07-10T01:23:22.580Z,6.66
2023-07-10T01:25:49.152Z,6.85
2023-07-10T01:28:15.765Z,6.70
2023-07-10T01:30:42.383Z,6.67
2023-07-10T01:33:08.991Z,6.90
2023-07-10T01:35:35.545Z,6.76
2023-07-10T01:38:02.125Z,6.84
2023-07-10T01:40:28.622Z,6.99
2023-07-10T01:42:55.192Z,6.73
2023-07-10T01:45:21.734Z,6.93
2023-07-10T01:47:48.290Z,6.87
2023-07-10T01:50:14.898Z,6.80
2023-07-10T01:52:41.413Z,6.87
2023-07-10T01:55:08.007Z,6.98
2023-07-10T01:57:34.549Z,6.87
2023-07-10T02:00:01.127Z,6.91
2023-07-10T02:02:27.710Z,6.84
2023-07-10T02:04:54.321Z,6.80
2023-07-10T02:07:20.897Z,6.98
2023-07-10T02:09:47.369Z,6.83
2023-07-10T02:12:13.876Z,7.32
2023-07-10T02:14:40.295Z,6.96
2023-07-10T02:17:06.808Z,7.05
2023-07-10T02:19:33.420Z,7.08
2023-07-10T02:21:59.974Z,7.03
2023-07-10T02:24:26.600Z,6.89
2023-07-10T02:26:53.197Z,6.87
2023-07-10T02:29:19.852Z,7.05
2023-07-10T02:31:46.422Z,6.70
2023-07-10T02:34:13.025Z,6.96
2023-07-10T02:36:39.587Z,7.01
2023-07-10T02:39:06.081Z,6.94
2023-07-10T02:41:32.701Z,6.82
2023-07-10T02:43:59.280Z,7.00
2023-07-10T02:46:25.968Z,6.83
2023-07-10T02:48:52.527Z,6.57
2023-07-10T02:51:19.098Z,6.65
2023-07-10T02:53:45.714Z,6.74
2023-07-10T02:56:12.175Z,6.80
2023-07-10T02:58:38.742Z,6.96
2023-07-10T03:01:05.351Z,6.90
2023-07-10T03:03:31.913Z,6.90
2023-07-10T03:05:58.489Z,7.13
2023-07-10T03:08:24.955Z,6.86
2023-07-10T03:10:51.499Z,6.95
2023-07-10T03:13:18.013Z,6.64
2023-07-10T03:15:44.652Z,6.78
2023-07-10T03:18:11.209Z,6.89
2023-07-10T03:20:37.805Z,6.84
2023-07-10T03:23:04.418Z,6.85
2023-07-10T03:25:31.061Z,6.57
2023-07-10T03:27:57.672Z,7.01
2023-07-10T03:30:24.262Z,7.09
2023-07-10T03:32:50.857Z,6.65
2023-07-10T03:35:17.454Z,6.59
2023-07-10T03:37:43.967Z,6.62
2023-07-10T03:40:10.483Z,6.69
2023-07-10T03:42:37.043Z,6.67
2023-07-10T03:45:03.615Z,6.91
2023-07-10T03:47:30.128Z,6.46
2023-07-10T03:49:56.708Z,7.38
2023-07-10T03:52:23.235Z,7.18
2023-07-10T03:54:49.805Z,7.23
2023-07-10T03:57:16.409Z,7.07
2023-07-10T03:59:43.006Z,6.79
2023-07-10T04:02:09.608Z,7.25
2023-07-10T04:04:36.205Z,7.04
2023-07-10T04:07:02.874Z,6.89
2023-07-10T04:09:29.540Z,7.35
2023-07-10T04:11:56.093Z,7.48
2023-07-10T04:14:22.646Z,6.98
2023-07-10T04:16:49.181Z,6.95
2023-07-10T04:19:15.769Z,7.03
2023-07-10T04:21:42.237Z,7.20
2023-07-10T04:24:08.839Z,7.35
2023-07-10T04:26:35.335Z,7.27
2023-07-10T04:29:02.036Z,7.75
2023-07-10T04:31:28.721Z,6.86
2023-07-10T04:33:55.412Z,7.49
2023-07-10T04:36:22.021Z,7.14
2023-07-10T04:38:48.592Z,7.57
2023-07-10T04:41:15.260Z,7.68
2023-07-10T04:43:41.785Z,7.81
2023-07-10T04:46:08.522Z,7.80
2023-07-10T04:48:35.204Z,8.04
2023-07-10T04:51:01.824Z,7.71
2023-07-10T04:53:28.318Z,7.99
2023-07-10T04:55:54.808Z,7.79
2023-07-10T04:58:21.476Z,7.68
2023-07-10T05:00:49.842Z,7.74
2023-07-10T05:03:17.986Z,8.20
2023-07-10T05:05:44.568Z,7.90
2023-07-10T05:08:12.906Z,7.71
2023-07-10T05:10:40.301Z,8.04
2023-07-10T05:13:06.947Z,8.05
2023-07-10T05:15:33.596Z,7.70
2023-07-10T05:18:00.309Z,8.21
2023-07-10T05:20:26.956Z,8.39
2023-07-10T05:22:53.532Z,8.15
2023-07-10T05:25:20.118Z,8.11
2023-07-10T05:27:46.660Z,8.32
2023-07-10T05:30:13.241Z,8.55
2023-07-10T05:32:39.943Z,8.28
2023-07-10T05:35:06.449Z,8.51
2023-07-10T05:37:33.091Z,8.07
2023-07-10T05:39:59.752Z,8.51
2023-07-10T05:42:26.346Z,8.77
2023-07-10T05:44:52.930Z,8.04
2023-07-10T05:47:19.537Z,8.31
2023-07-10T05:49:46.083Z,8.94
2023-07-10T05:52:12.599Z,8.34
2023-07-10T05:54:39.080Z,8.64
2023-07-10T05:57:05.642Z,9.13
2023-07-10T05:59:32.232Z,8.80
2023-07-10T06:01:58.957Z,8.91
2023-07-10T06:04:27.319Z,8.56
2023-07-10T06:06:55.493Z,8.93
2023-07-10T06:09:22.006Z,8.55
2023-07-10T06:11:48.519Z,8.96
2023-07-10T06:14:15.324Z,8.78
2023-07-10T06:16:42.105Z,8.58
2023-07-10T06:19:08.785Z,8.45
2023-07-10T06:21:35.289Z,8.20
2023-07-10T06:24:01.867Z,8.06
2023-07-10T06:26:28.538Z,8.27
2023-07-10T06:28:55.063Z,8.64
2023-07-10T06:31:21.568Z,8.40
2023-07-10T06:33:48.144Z,8.17
2023-07-10T06:36:14.734Z,8.71
2023-07-10T06:38:41.408Z,7.98
2023-07-10T06:41:07.979Z,8.19
2023-07-10T06:43:34.620Z,8.57
2023-07-10T06:46:01.339Z,8.52
2023-07-10T06:48:27.981Z,8.23
2023-07-10T06:50:54.541Z,8.33
2023-07-10T06:55:50.471Z,8.16
2023-07-10T06:58:17.039Z,8.53
2023-07-10T07:00:43.740Z,8.35
2023-07-10T07:03:10.394Z,8.00
2023-07-10T07:05:37.068Z,8.07
2023-07-10T07:08:03.607Z,8.01
2023-07-10T07:10:30.245Z,7.78
2023-07-10T07:12:56.812Z,7.41
2023-07-10T07:15:23.446Z,8.03
2023-07-10T07:17:50.093Z,8.23
2023-07-10T07:20:16.758Z,8.44
2023-07-10T07:22:43.458Z,8.09
2023-07-10T07:25:10.094Z,8.50
2023-07-10T07:27:36.735Z,8.14
2023-07-10T07:30:03.340Z,8.59
2023-07-10T07:32:29.906Z,7.85
2023-07-10T07:34:56.373Z,8.25
2023-07-10T07:37:22.885Z,7.72
2023-07-10T07:39:49.365Z,7.79
2023-07-10T07:42:15.944Z,7.67
2023-07-10T07:44:42.580Z,7.61
2023-07-10T07:47:09.139Z,7.56
2023-07-10T07:49:35.773Z,7.67
2023-07-10T07:52:02.400Z,7.95
2023-07-10T07:54:28.960Z,7.54
2023-07-10T07:56:55.419Z,7.88
2023-07-10T07:59:22.034Z,7.81
2023-07-10T08:01:48.650Z,7.78
2023-07-10T08:04:15.268Z,7.83
2023-07-10T08:06:44.207Z,7.76
2023-07-10T08:09:13.669Z,7.91
2023-07-10T08:11:40.336Z,7.75
2023-07-10T08:14:07.279Z,7.99
2023-07-10T08:16:34.148Z,8.16
2023-07-10T08:19:00.687Z,7.96
2023-07-10T08:21:27.245Z,8.23
2023-07-10T08:23:53.730Z,8.29
2023-07-10T08:26:20.639Z,8.30
2023-07-10T08:28:47.484Z,8.01
2023-07-10T08:31:16.363Z,8.03
2023-07-10T08:33:43.789Z,7.72
2023-07-10T08:36:18.262Z,7.83
2023-07-10T08:38:44.747Z,7.78
2023-07-10T08:41:11.747Z,7.88
2023-07-10T08:43:38.373Z,7.79
2023-07-10T08:46:05.292Z,7.92
2023-07-10T08:48:32.334Z,7.62
2023-07-10T08:51:03.817Z,7.91
2023-07-10T08:53:31.525Z,8.03
2023-07-10T08:55:59.171Z,8.41
2023-07-10T08:58:25.761Z,8.00
2023-07-10T09:00:52.312Z,8.59
2023-07-10T09:03:18.872Z,8.52
2023-07-10T09:05:45.489Z,8.42
2023-07-10T09:08:15.316Z,8.58
2023-07-10T09:10:41.864Z,8.46
2023-07-10T09:13:08.426Z,8.70
2023-07-10T09:15:36.175Z,8.75
2023-07-10T09:18:03.088Z,8.65
2023-07-10T09:20:29.753Z,8.80
2023-07-10T09:22:56.863Z,8.73
2023-07-10T09:25:23.542Z,8.56
2023-07-10T09:27:50.417Z,8.73
2023-07-10T09:30:17.448Z,8.65
2023-07-10T09:32:47.449Z,8.78
2023-07-10T09:35:14.548Z,8.31
2023-07-10T09:37:41.156Z,8.74
2023-07-10T09:40:09.073Z,8.64
2023-07-10T09:42:35.746Z,9.04
2023-07-10T09:45:02.217Z,9.14
2023-07-10T09:47:28.807Z,8.98
2023-07-10T09:49:55.386Z,8.69
2023-07-10T09:52:22.605Z,8.93
2023-07-10T09:54:49.230Z,9.16
2023-07-10T09:57:15.744Z,8.64
2023-07-10T09:59:42.385Z,9.06
2023-07-10T10:02:08.911Z,9.25
2023-07-10T10:04:35.694Z,9.01
2023-07-10T10:07:02.678Z,9.04
2023-07-10T10:09:29.252Z,9.48
2023-07-10T10:11:57.898Z,9.34
2023-07-10T10:14:26.866Z,9.76
2023-07-10T10:16:57.769Z,9.03
2023-07-10T10:19:24.325Z,9.39
2023-07-10T10:21:50.879Z,9.06
2023-07-10T10:24:18.135Z,9.77
2023-07-10T10:26:44.628Z,9.11
2023-07-10T10:29:11.481Z,9.50
2023-07-10T10:31:40.618Z,9.38
2023-07-10T10:34:08.413Z,9.39
2023-07-10T10:36:38.458Z,9.55
2023-07-10T10:39:05.037Z,9.70
2023-07-10T10:41:31.596Z,9.50
2023-07-10T10:43:58.197Z,9.33
2023-07-10T10:46:24.783Z,9.57
2023-07-10T10:48:51.417Z,9.47
2023-07-10T10:51:18.157Z,9.25
2023-07-10T10:53:45.913Z,9.29
2023-07-10T10:56:12.780Z,9.58
2023-07-10T10:58:39.375Z,9.66
2023-07-10T11:01:06.146Z,9.60
2023-07-10T11:03:32.863Z,9.68
2023-07-10T11:05:59.881Z,9.70
2023-07-10T11:08:27.868Z,9.45
2023-07-10T11:10:55.779Z,9.76
2023-07-10T11:13:22.369Z,9.68
2023-07-10T11:15:50.069Z,9.80
2023-07-10T11:18:16.741Z,9.61
2023-07-10T11:20:47.638Z,9.68
2023-07-10T11:23:14.160Z,9.69
2023-07-10T11:25:40.682Z,9.78
2023-07-10T11:28:07.121Z,9.78
2023-07-10T11:30:34.037Z,10.06
2023-07-10T11:33:00.980Z,9.94
2023-07-10T11:35:27.590Z,9.60
2023-07-10T11:37:54.205Z,9.73
2023-07-10T11:40:21.256Z,9.64
2023-07-10T11:42:47.951Z,9.37
2023-07-10T11:45:21.639Z,9.68
2023-07-10T11:47:52.561Z,9.53
2023-07-10T11:50:19.201Z,9.38
2023-07-10T11:52:45.722Z,9.44
2023-07-10T11:55:12.436Z,9.50
2023-07-10T11:57:41.114Z,9.78
2023-07-10T12:00:07.676Z,9.60
2023-07-10T12:02:37.068Z,9.69
2023-07-10T12:05:04.288Z,9.31
2023-07-10T12:07:30.935Z,9.26
2023-07-10T12:09:57.533Z,9.61
2023-07-10T12:12:24.038Z,9.65
2023-07-10T12:14:50.654Z,9.66
2023-07-10T12:19:50.836Z,9.26
2023-07-10T12:22:17.491Z,9.74
2023-07-10T12:24:44.091Z,9.76
2023-07-10T12:28:09.776Z,9.47
2023-07-10T12:29:57.326Z,9.55
2023-07-10T12:32:23.892Z,9.57
2023-07-10T12:34:50.599Z,9.45
2023-07-10T12:37:17.102Z,9.53
2023-07-10T12:39:43.614Z,9.55
2023-07-10T12:42:10.465Z,9.64
2023-07-10T12:44:40.129Z,9.64
2023-07-10T12:47:07.000Z,9.87
2023-07-10T12:49:33.828Z,9.75
2023-07-10T12:52:00.402Z,9.86
2023-07-10T12:54:27.149Z,9.95
2023-07-10T12:56:53.806Z,10.12
2023-07-10T12:59:20.645Z,9.55
2023-07-10T13:01:47.298Z,10.08
2023-07-10T13:04:13.809Z,9.57
2023-07-10T13:06:40.560Z,9.29
2023-07-10T13:09:07.143Z,10.19
2023-07-10T13:11:41.443Z,9.51
2023-07-10T13:16:37.893Z,9.71
2023-07-10T13:19:04.690Z,10.00
2023-07-10T13:21:31.315Z,9.73
2023-07-10T13:23:57.900Z,9.68
2023-07-10T13:26:24.559Z,9.88
2023-07-10T13:28:51.175Z,9.52
2023-07-10T13:31:18.088Z,10.22
2023-07-10T13:33:44.859Z,10.21
2023-07-10T13:36:11.407Z,10.34
2023-07-10T13:38:38.049Z,10.42
2023-07-10T13:41:04.561Z,9.67
2023-07-10T13:43:31.057Z,9.59
2023-07-10T13:45:57.840Z,9.56
2023-07-10T13:48:24.456Z,9.70
2023-07-10T13:50:51.072Z,10.13
2023-07-10T13:53:17.569Z,9.97
2023-07-10T13:55:44.087Z,10.02
2023-07-10T13:58:10.644Z,9.96
2023-07-10T14:00:37.198Z,10.12
2023-07-10T14:03:03.948Z,10.03
2023-07-10T14:05:30.490Z,10.19
2023-07-10T14:07:57.004Z,10.31
2023-07-10T14:10:23.553Z,9.80
2023-07-10T14:12:50.277Z,10.10
2023-07-10T14:15:16.837Z,10.09
2023-07-10T14:17:43.425Z,10.57
2023-07-10T14:20:09.962Z,10.56
2023-07-10T14:22:36.883Z,10.69
2023-07-10T14:25:03.462Z,10.48
2023-07-10T14:27:30.063Z,10.33
2023-07-10T14:29:56.674Z,10.81
2023-07-10T14:32:23.446Z,10.44
2023-07-10T14:34:50.265Z,10.37
2023-07-10T14:37:16.861Z,10.62
2023-07-10T14:39:43.464Z,10.45
2023-07-10T14:42:10.107Z,10.49
2023-07-10T14:44:36.660Z,10.14
2023-07-10T14:47:08.266Z,10.31
2023-07-10T14:49:35.251Z,10.40
2023-07-10T14:52:02.037Z,10.12
2023-07-10T14:54:28.642Z,10.52
2023-07-10T14:56:55.373Z,10.44
2023-07-10T14:59:22.050Z,10.56
2023-07-10T15:01:48.628Z,10.12
2023-07-10T15:04:15.305Z,10.18
2023-07-10T15:06:42.250Z,10.14
2023-07-10T15:09:08.872Z,10.10
2023-07-10T15:11:35.462Z,10.34
2023-07-10T15:14:02.165Z,10.19
2023-07-10T15:16:28.961Z,10.34
2023-07-10T15:18:55.655Z,10.03
2023-07-10T15:21:22.306Z,10.04
2023-07-10T15:23:49.059Z,10.07
2023-07-10T15:26:16.065Z,10.20
2023-07-10T15:28:42.766Z,11.39
2023-07-10T15:31:09.483Z,11.30
2023-07-10T15:33:36.264Z,9.91
2023-07-10T15:36:02.703Z,9.87
2023-07-10T15:38:29.191Z,10.15
2023-07-10T15:40:55.692Z,9.58
2023-07-10T15:43:24.515Z,9.62
2023-07-10T15:45:51.811Z,9.82
2023-07-10T15:48:18.357Z,9.62
2023-07-10T15:50:44.944Z,9.63
2023-07-10T15:53:12.699Z,9.60
2023-07-10T15:55:39.329Z,9.77
2023-07-10T15:58:05.942Z,9.92
2023-07-10T16:00:32.640Z,9.63
2023-07-10T16:02:59.439Z,10.05
2023-07-10T16:05:26.018Z,9.52
2023-07-10T16:07:52.544Z,9.88
2023-07-10T16:10:19.066Z,9.61
2023-07-10T16:12:45.551Z,9.37
2023-07-10T16:15:12.135Z,9.13
2023-07-10T16:17:38.675Z,9.17
2023-07-10T16:20:05.312Z,9.26
2023-07-10T16:22:31.884Z,8.92
2023-07-10T16:24:58.527Z,9.47
2023-07-10T16:27:25.147Z,9.48
2023-07-10T16:29:51.735Z,9.51
2023-07-10T16:32:18.254Z,9.18
2023-07-10T16:34:44.822Z,9.24
2023-07-10T16:37:11.614Z,9.21
2023-07-10T16:39:38.237Z,9.50
2023-07-10T16:42:04.789Z,9.32
2023-07-10T16:44:31.546Z,9.37
2023-07-10T16:46:58.091Z,9.80
2023-07-10T16:49:24.589Z,9.77
2023-07-10T16:51:51.580Z,9.71
2023-07-10T16:54:18.205Z,9.75
2023-07-10T16:56:44.732Z,9.17
2023-07-10T16:59:11.326Z,9.33
2023-07-10T17:01:38.326Z,9.22
2023-07-10T17:04:05.072Z,9.18
2023-07-10T17:06:31.590Z,9.58
2023-07-10T17:08:58.212Z,9.68
2023-07-10T17:11:24.985Z,10.00
2023-07-10T17:13:51.667Z,9.91
2023-07-10T17:16:18.316Z,9.98
2023-07-10T17:18:44.928Z,9.68
2023-07-10T17:21:11.532Z,9.92
2023-07-10T17:23:38.098Z,9.29
2023-07-10T17:26:04.647Z,9.60
2023-07-10T17:28:31.267Z,9.85
2023-07-10T17:30:57.824Z,9.78
2023-07-10T17:33:24.422Z,9.41
2023-07-10T17:35:51.092Z,9.63
2023-07-10T17:38:17.636Z,10.80
2023-07-10T17:40:44.205Z,11.96
2023-07-10T17:43:10.679Z,10.82
2023-07-10T17:45:37.236Z,10.00
2023-07-10T17:48:03.806Z,10.05
2023-07-10T17:50:30.613Z,9.86
2023-07-10T17:52:57.151Z,10.10
2023-07-10T17:55:23.655Z,9.70
2023-07-10T17:57:50.272Z,10.08
2023-07-10T18:00:16.866Z,9.77
2023-07-10T18:02:43.566Z,10.15
2023-07-10T18:05:10.077Z,10.04
2023-07-10T18:07:36.647Z,10.14
2023-07-10T18:10:03.170Z,9.97
2023-07-10T18:12:29.836Z,10.16
2023-07-10T18:14:56.336Z,9.65
2023-07-10T18:17:22.981Z,10.14
2023-07-10T18:19:49.532Z,10.95
2023-07-10T18:22:16.030Z,11.27
2023-07-10T18:24:42.566Z,10.59
2023-07-10T18:27:09.160Z,10.60
2023-07-10T18:29:35.715Z,10.18
2023-07-10T18:32:02.400Z,10.36
2023-07-10T18:34:29.055Z,10.12
2023-07-10T18:36:55.596Z,10.38
2023-07-10T18:39:22.168Z,10.04
2023-07-10T18:41:48.784Z,10.23
2023-07-10T18:44:15.297Z,10.78
2023-07-10T18:46:41.932Z,10.13
2023-07-10T18:49:14.189Z,10.06
2023-07-10T18:51:41.103Z,10.72
2023-07-10T18:54:07.671Z,10.17
2023-07-10T18:56:34.329Z,10.21
2023-07-10T18:59:00.940Z,9.93
2023-07-10T19:01:27.558Z,10.23
2023-07-10T19:03:54.335Z,10.47
2023-07-10T19:06:20.987Z,10.06
2023-07-10T19:08:47.599Z,10.07
2023-07-10T19:11:14.203Z,10.08
2023-07-10T19:13:40.810Z,10.36
2023-07-10T19:16:07.554Z,10.53
2023-07-10T19:18:34.252Z,10.41
2023-07-10T19:21:00.807Z,10.00
2023-07-10T19:23:27.318Z,10.04
2023-07-10T19:25:53.842Z,10.17
2023-07-10T19:28:20.383Z,10.39
2023-07-10T19:30:47.014Z,10.71
2023-07-10T19:33:13.670Z,10.15
2023-07-10T19:35:40.226Z,10.40
2023-07-10T19:38:06.867Z,10.43
2023-07-10T19:40:33.608Z,9.95
2023-07-10T19:43:00.204Z,9.92
2023-07-10T19:45:26.896Z,10.41
2023-07-10T19:47:53.631Z,10.50
2023-07-10T19:50:20.247Z,10.37
2023-07-10T19:52:46.785Z,10.31
2023-07-10T19:55:13.326Z,10.55
2023-07-10T19:57:39.923Z,10.55
2023-07-10T20:00:06.537Z,10.56
2023-07-10T20:02:33.287Z,10.68
2023-07-10T20:04:59.868Z,10.45
2023-07-10T20:07:26.379Z,10.52
2023-07-10T20:09:52.940Z,10.65
2023-07-10T20:12:19.570Z,10.73
2023-07-10T20:14:46.196Z,10.59
2023-07-10T20:17:12.768Z,10.96
2023-07-10T20:19:39.288Z,10.79
2023-07-10T20:22:05.843Z,10.32
2023-07-10T20:24:32.383Z,10.60
2023-07-10T20:26:59.104Z,10.61
2023-07-10T20:29:25.647Z,10.93
2023-07-10T20:31:52.269Z,11.31
2023-07-10T20:34:18.943Z,10.74
2023-07-10T20:36:45.484Z,10.62
2023-07-10T20:39:12.063Z,10.73
2023-07-10T20:41:38.600Z,10.83
2023-07-10T20:44:05.272Z,10.46
2023-07-10T20:46:31.809Z,10.76
2023-07-10T20:48:58.523Z,10.51
2023-07-10T20:51:25.347Z,10.40
2023-07-10T20:53:51.969Z,10.84
2023-07-10T20:56:18.528Z,10.67
2023-07-10T20:58:45.054Z,10.46
2023-07-10T21:01:11.628Z,10.69
2023-07-10T21:03:38.393Z,10.74
2023-07-10T21:06:05.216Z,10.52
2023-07-10T21:08:32.060Z,10.11
2023-07-10T21:10:58.615Z,9.98
2023-07-10T21:13:25.223Z,9.81
2023-07-10T21:15:51.716Z,10.19
2023-07-10T21:18:18.263Z,10.47
2023-07-10T21:20:44.793Z,10.34
2023-07-10T21:23:11.351Z,10.31
2023-07-10T21:25:37.796Z,10.77
2023-07-10T21:28:04.335Z,10.27
2023-07-10T21:30:31.014Z,10.50
2023-07-10T21:32:57.566Z,10.55
2023-07-10T21:35:27.369Z,10.30
2023-07-10T21:37:54.122Z,10.41
2023-07-10T21:40:20.687Z,10.29
2023-07-10T21:42:47.202Z,10.63
2023-07-10T21:45:13.651Z,10.71
2023-07-10T21:47:40.204Z,10.44
2023-07-10T21:50:06.737Z,10.32
2023-07-10T21:52:33.258Z,10.57
2023-07-10T21:54:59.776Z,10.11
2023-07-10T21:57:26.251Z,10.04
2023-07-10T21:59:52.799Z,10.01
2023-07-10T22:02:19.289Z,9.92
2023-07-10T22:04:46.039Z,10.18
2023-07-10T22:07:12.703Z,10.15
2023-07-10T22:09:39.253Z,9.66
2023-07-10T22:12:05.834Z,9.80
2023-07-10T22:14:32.338Z,10.02
2023-07-10T22:17:13.905Z,9.63
2023-07-10T22:19:41.754Z,9.66
2023-07-10T22:22:08.290Z,9.71
2023-07-10T22:24:34.958Z,9.92
2023-07-10T22:27:01.516Z,9.99
2023-07-10T22:29:28.106Z,9.77
2023-07-10T22:31:54.737Z,9.99
2023-07-10T22:34:21.274Z,10.48
2023-07-10T22:36:47.863Z,9.66
2023-07-10T22:39:14.456Z,9.67
2023-07-10T22:41:41.015Z,10.26
2023-07-10T22:44:07.540Z,10.10
2023-07-10T22:46:34.295Z,9.88
2023-07-10T22:49:00.956Z,9.76
2023-07-10T22:51:27.534Z,9.96
2023-07-10T22:53:54.028Z,9.84
2023-07-10T22:56:20.604Z,9.65
2023-07-10T22:58:47.141Z,9.95
2023-07-10T23:01:13.785Z,9.76
2023-07-10T23:03:40.393Z,9.65
2023-07-10T23:06:07.263Z,9.74
2023-07-10T23:08:34.161Z,9.56
2023-07-10T23:11:02.246Z,9.33
2023-07-10T23:13:29.972Z,9.20
2023-07-10T23:15:56.560Z,9.80
2023-07-10T23:18:23.166Z,9.61
2023-07-10T23:20:49.735Z,9.16
2023-07-10T23:23:16.190Z,9.94
2023-07-10T23:25:42.774Z,9.45
2023-07-10T23:28:09.363Z,9.70
2023-07-10T23:30:36.042Z,9.41
2023-07-10T23:33:02.692Z,9.35
2023-07-10T23:35:29.380Z,9.20
2023-07-10T23:37:55.971Z,9.73
2023-07-10T23:40:22.557Z,9.41
2023-07-10T23:42:49.125Z,9.55
2023-07-10T23:45:15.760Z,9.54
2023-07-10T23:47:42.285Z,9.49
2023-07-10T23:50:08.904Z,9.52
2023-07-10T23:52:35.448Z,9.29
2023-07-10T23:55:01.985Z,9.68
2023-07-10T23:57:28.593Z,9.33
2023-07-10T23:59:55.189Z,9.71
